Time;durP1;ratioP1;P1;durP2;ratioP2;P2;SDS_P1;SDS_P2;PMS_P1;PMS_P2;Temp;Humidity;BMP_temperature;BMP_pressure;BME280_temperature;BME280_humidity;BME280_pressure;Samples;Min_cycle;Max_cycle;Signal;HPM_P1;HPM_P2
2023/10/14 00:04:42;;;;;;;6.47;4.60;;;;;;;;;;10423510;28;20114;-71
2023/10/14 00:09:43;;;;;;;16.35;4.30;;;;;;;;;;10423364;28;20303;-71
2023/10/14 00:14:43;;;;;;;9.32;4.22;;;;;;;;;;10423053;28;20327;-71
2023/10/14 00:19:49;;;;;;;9.20;4.72;;;;;;;;;;10423093;28;20017;-71
2023/10/14 00:24:52;;;;;;;12.23;4.78;;;;;;;;;;10422576;28;20067;-70
2023/10/14 00:30:06;;;;;;;9.30;4.78;;;;;;;;;;10422601;28;20028;-71
2023/10/14 00:35:09;;;;;;;9.25;4.50;;;;;;;;;;10427816;28;20223;-71
2023/10/14 00:40:22;;;;;;;8.77;4.15;;;;;;;;;;10421488;28;20050;-71
2023/10/14 00:45:22;;;;;;;15.75;5.53;;;;;;;;;;10413738;28;20032;-71
2023/10/14 00:50:44;;;;;;;13.65;4.63;;;;;;;;;;10421357;28;20021;-70
2023/10/14 00:55:51;;;;;;;10.98;5.65;;;;;;;;;;10421409;28;20037;-70
2023/10/14 01:00:57;;;;;;;10.95;4.97;;;;;;;;;;10420575;28;20029;-70
2023/10/14 01:06:00;;;;;;;10.98;5.38;;;;;;;;;;10403867;28;20022;-70
2023/10/14 01:11:03;;;;;;;10.65;5.65;;;;;;;;;;10406764;28;20021;-71
2023/10/14 01:16:09;;;;;;;11.88;5.05;;;;;;;;;;10423257;28;20041;-71
2023/10/14 01:21:10;;;;;;;10.35;5.07;;;;;;;;;;10420354;28;20092;-72
2023/10/14 01:26:10;;;;;;;9.63;4.78;;;;;;;;;;10420599;28;20322;-72
2023/10/14 01:31:30;;;;;;;23.85;5.25;;;;;;;;;;10420429;28;20037;-71
2023/10/14 01:36:41;;;;;;;20.27;6.38;;;;;;;;;;10420225;28;20322;-71
2023/10/14 01:41:41;;;;;;;13.93;5.50;;;;;;;;;;10419970;28;20165;-70
2023/10/14 01:46:45;;;;;;;13.27;4.67;;;;;;;;;;10418380;28;20017;-70
2023/10/14 01:51:49;;;;;;;10.40;5.68;;;;;;;;;;10419465;28;20013;-70
2023/10/14 01:56:51;;;;;;;9.20;5.53;;;;;;;;;;10418183;28;20030;-71
2023/10/14 02:01:54;;;;;;;14.65;5.90;;;;;;;;;;10419086;28;20040;-70
2023/10/14 02:12:24;;;;;;;11.63;6.43;;;;;;;;;;10417318;28;20049;-69
2023/10/14 02:17:25;;;;;;;15.23;6.10;;;;;;;;;;10418167;28;20025;-70
2023/10/14 02:22:25;;;;;;;13.43;5.03;;;;;;;;;;10386223;28;20031;-70
2023/10/14 02:27:26;;;;;;;18.23;5.55;;;;;;;;;;10409868;28;20246;-70
2023/10/14 02:32:27;;;;;;;14.55;5.18;;;;;;;;;;10416994;28;20028;-71
2023/10/14 02:37:27;;;;;;;11.82;4.82;;;;;;;;;;10417494;28;20060;-70
2023/10/14 02:42:27;;;;;;;11.57;5.27;;;;;;;;;;10417241;28;20311;-70
2023/10/14 02:47:28;;;;;;;12.98;5.22;;;;;;;;;;10416470;28;20264;-70
2023/10/14 02:52:31;;;;;;;10.45;5.05;;;;;;;;;;10415736;28;20069;-71
2023/10/14 02:57:31;;;;;;;12.25;5.15;;;;;;;;;;10416893;28;20029;-70
2023/10/14 03:02:48;;;;;;;9.83;5.20;;;;;;;;;;10416762;28;20021;-70
2023/10/14 03:07:50;;;;;;;14.68;5.75;;;;;;;;;;10416703;28;20215;-72
2023/10/14 03:12:50;;;;;;;9.73;4.82;;;;;;;;;;10416318;28;20208;-72
2023/10/14 03:17:53;;;;;;;11.20;5.27;;;;;;;;;;10416365;28;20100;-71
2023/10/14 03:22:57;;;;;;;9.40;5.43;;;;;;;;;;10416584;28;20025;-72
2023/10/14 03:28:06;;;;;;;14.85;5.32;;;;;;;;;;10416063;28;20254;-71
2023/10/14 03:33:10;;;;;;;9.05;5.35;;;;;;;;;;10415516;28;20028;-71
2023/10/14 03:38:46;;;;;;;9.38;5.40;;;;;;;;;;10415466;28;20117;-72
2023/10/14 03:43:48;;;;;;;10.50;4.85;;;;;;;;;;10415201;28;20057;-72
2023/10/14 03:48:48;;;;;;;11.55;5.32;;;;;;;;;;10416540;28;20140;-71
2023/10/14 03:53:52;;;;;;;7.95;5.55;;;;;;;;;;10415743;28;20062;-71
2023/10/14 03:58:55;;;;;;;8.77;4.43;;;;;;;;;;10415587;28;20026;-71
2023/10/14 04:03:56;;;;;;;10.90;5.68;;;;;;;;;;10415056;28;20028;-71
2023/10/14 04:08:56;;;;;;;12.50;5.72;;;;;;;;;;10415857;28;20030;-69
2023/10/14 04:14:03;;;;;;;11.85;5.97;;;;;;;;;;10415086;28;20025;-71
2023/10/14 04:19:22;;;;;;;10.45;5.13;;;;;;;;;;10409037;28;20117;-71
2023/10/14 04:29:39;;;;;;;13.27;6.25;;;;;;;;;;10414437;28;20014;-71
2023/10/14 04:34:40;;;;;;;7.97;5.57;;;;;;;;;;10414988;28;20033;-71
2023/10/14 04:39:44;;;;;;;14.40;5.40;;;;;;;;;;10420954;28;20072;-71
2023/10/14 04:44:45;;;;;;;14.10;6.43;;;;;;;;;;10421945;28;20050;-71
2023/10/14 04:49:51;;;;;;;10.35;6.10;;;;;;;;;;10421786;28;20323;-71
2023/10/14 04:54:54;;;;;;;13.07;5.28;;;;;;;;;;10422212;28;20349;-71
2023/10/14 04:59:55;;;;;;;17.45;6.80;;;;;;;;;;10420170;28;20028;-71
2023/10/14 05:04:55;;;;;;;10.63;6.28;;;;;;;;;;10421598;28;20196;-71
2023/10/14 05:10:05;;;;;;;13.25;5.38;;;;;;;;;;10418422;28;20152;-69
2023/10/14 05:15:19;;;;;;;9.48;5.65;;;;;;;;;;10418871;28;20026;-70
2023/10/14 05:20:29;;;;;;;11.18;5.53;;;;;;;;;;10414468;28;20029;-68
2023/10/14 05:25:30;;;;;;;11.02;6.20;;;;;;;;;;10418672;28;20051;-69
2023/10/14 05:30:34;;;;;;;16.58;6.40;;;;;;;;;;10417360;28;20013;-68
2023/10/14 05:35:38;;;;;;;15.70;6.93;;;;;;;;;;10418368;28;20029;-69
2023/10/14 05:40:41;;;;;;;13.95;6.80;;;;;;;;;;10418705;28;20331;-68
2023/10/14 05:45:41;;;;;;;14.82;7.78;;;;;;;;;;10417201;28;20068;-69
2023/10/14 05:50:43;;;;;;;12.63;5.55;;;;;;;;;;10410275;28;20028;-72
2023/10/14 05:55:47;;;;;;;13.25;5.22;;;;;;;;;;10424106;28;20033;-72
2023/10/14 06:00:51;;;;;;;10.68;5.90;;;;;;;;;;10414274;28;20088;-75
2023/10/14 06:05:51;;;;;;;16.90;7.38;;;;;;;;;;10412658;28;20021;-76
2023/10/14 06:10:53;;;;;;;9.55;4.72;;;;;;;;;;10414073;28;20064;-77
2023/10/14 06:15:54;;;;;;;15.90;5.30;;;;;;;;;;10414544;28;20017;-74
2023/10/14 06:20:55;;;;;;;13.82;6.00;;;;;;;;;;10413529;28;20090;-74
2023/10/14 06:25:55;;;;;;;9.90;5.63;;;;;;;;;;10410233;28;20577;-76
2023/10/14 06:31:00;;;;;;;10.63;6.07;;;;;;;;;;10411920;28;20018;-79
2023/10/14 06:36:04;;;;;;;12.35;5.05;;;;;;;;;;10413125;28;20292;-80
2023/10/14 06:41:05;;;;;;;12.02;4.90;;;;;;;;;;10407617;28;20196;-73
2023/10/14 06:46:06;;;;;;;17.83;8.48;;;;;;;;;;10408990;28;20052;-72
2023/10/14 06:51:09;;;;;;;12.90;5.28;;;;;;;;;;10410119;28;20284;-71
2023/10/14 06:56:11;;;;;;;10.40;5.32;;;;;;;;;;10407998;28;20015;-70
2023/10/14 07:01:12;;;;;;;11.85;5.95;;;;;;;;;;10412267;28;20045;-72
2023/10/14 07:06:13;;;;;;;16.02;5.63;;;;;;;;;;10413182;28;20025;-73
2023/10/14 07:11:13;;;;;;;8.73;5.10;;;;;;;;;;10413213;28;20014;-72
2023/10/14 07:16:13;;;;;;;10.57;4.93;;;;;;;;;;10412036;28;20013;-72
2023/10/14 07:21:14;;;;;;;14.13;5.70;;;;;;;;;;10410694;28;20075;-72
2023/10/14 07:26:15;;;;;;;15.95;6.43;;;;;;;;;;10408029;28;20044;-72
2023/10/14 07:31:15;;;;;;;22.98;7.35;;;;;;;;;;10408460;28;20211;-71
2023/10/14 07:36:16;;;;;;;13.43;4.97;;;;;;;;;;10409054;28;20025;-72
2023/10/14 07:41:18;;;;;;;12.50;4.73;;;;;;;;;;10410205;28;20330;-72
2023/10/14 07:46:19;;;;;;;15.43;5.22;;;;;;;;;;10411056;28;20302;-72
2023/10/14 07:51:19;;;;;;;13.23;5.10;;;;;;;;;;10410831;28;20021;-72
2023/10/14 07:56:22;;;;;;;13.32;4.78;;;;;;;;;;10410372;28;20006;-71
2023/10/14 08:01:23;;;;;;;12.88;4.60;;;;;;;;;;10420097;28;20017;-72
2023/10/14 08:06:23;;;;;;;11.40;4.78;;;;;;;;;;10410661;28;20220;-72
2023/10/14 08:11:23;;;;;;;9.37;4.67;;;;;;;;;;10411948;28;20017;-72
2023/10/14 08:16:24;;;;;;;13.57;4.97;;;;;;;;;;10418398;28;20188;-72
2023/10/14 08:21:24;;;;;;;16.25;4.95;;;;;;;;;;10418600;28;20025;-72
2023/10/14 08:26:26;;;;;;;14.52;4.88;;;;;;;;;;10417732;28;20057;-74
2023/10/14 08:31:26;;;;;;;19.20;4.35;;;;;;;;;;10417138;28;20013;-73
2023/10/14 08:36:26;;;;;;;9.10;4.27;;;;;;;;;;10417845;28;20090;-72
2023/10/14 08:41:29;;;;;;;13.48;5.05;;;;;;;;;;10418809;28;20292;-72
2023/10/14 08:46:35;;;;;;;15.63;4.10;;;;;;;;;;10417810;28;20041;-72
2023/10/14 08:51:37;;;;;;;11.75;4.47;;;;;;;;;;10417001;28;20389;-72
2023/10/14 08:56:40;;;;;;;16.45;5.20;;;;;;;;;;10417330;28;20126;-72
2023/10/14 09:01:41;;;;;;;15.95;4.57;;;;;;;;;;10416738;28;20029;-72
2023/10/14 09:06:41;;;;;;;18.17;5.03;;;;;;;;;;10416808;28;20014;-72
2023/10/14 09:11:42;;;;;;;13.85;4.47;;;;;;;;;;10415172;28;20216;-73
2023/10/14 09:16:48;;;;;;;17.57;5.77;;;;;;;;;;10416618;28;20021;-72
2023/10/14 09:21:48;;;;;;;16.58;4.85;;;;;;;;;;10415386;28;20036;-71
2023/10/14 09:26:50;;;;;;;11.20;4.40;;;;;;;;;;10416201;28;20016;-70
2023/10/14 09:31:51;;;;;;;15.57;4.05;;;;;;;;;;10416087;28;20207;-71
2023/10/14 09:36:52;;;;;;;14.63;4.73;;;;;;;;;;10415700;28;20037;-71
2023/10/14 09:41:53;;;;;;;20.90;5.00;;;;;;;;;;10414416;28;20614;-72
2023/10/14 09:46:54;;;;;;;13.25;3.90;;;;;;;;;;10415228;28;20044;-72
2023/10/14 09:51:55;;;;;;;16.35;3.85;;;;;;;;;;10414964;28;20053;-72
2023/10/14 09:56:55;;;;;;;11.27;2.97;;;;;;;;;;10415765;28;20275;-72
2023/10/14 10:01:56;;;;;;;9.00;3.28;;;;;;;;;;10414390;28;20021;-73
2023/10/14 10:07:04;;;;;;;10.98;2.75;;;;;;;;;;10414712;28;20025;-73
2023/10/14 10:12:08;;;;;;;7.55;2.60;;;;;;;;;;10414681;28;20342;-73
2023/10/14 10:17:12;;;;;;;15.30;3.00;;;;;;;;;;10413683;28;20088;-73
2023/10/14 10:22:17;;;;;;;9.43;2.70;;;;;;;;;;10413124;28;20025;-72
2023/10/14 10:27:17;;;;;;;11.75;2.40;;;;;;;;;;10414370;28;20017;-72
2023/10/14 10:32:19;;;;;;;11.83;2.80;;;;;;;;;;10413621;28;20013;-73
2023/10/14 10:37:19;;;;;;;4.50;2.10;;;;;;;;;;10412189;28;20323;-71
2023/10/14 10:42:19;;;;;;;10.38;2.47;;;;;;;;;;10414372;28;20025;-71
2023/10/14 10:47:22;;;;;;;9.82;2.67;;;;;;;;;;10413253;28;20311;-71
2023/10/14 10:52:24;;;;;;;6.22;1.92;;;;;;;;;;10412627;28;20091;-71
2023/10/14 10:57:25;;;;;;;6.90;2.50;;;;;;;;;;10412728;28;20292;-72
2023/10/14 11:02:25;;;;;;;8.67;2.33;;;;;;;;;;10412291;28;20216;-73
2023/10/14 11:07:25;;;;;;;3.75;2.03;;;;;;;;;;10411322;28;20279;-72
2023/10/14 11:12:26;;;;;;;8.23;2.00;;;;;;;;;;10412933;28;20319;-72
2023/10/14 11:17:26;;;;;;;8.70;2.17;;;;;;;;;;10412576;28;20013;-72
2023/10/14 11:22:27;;;;;;;9.75;3.10;;;;;;;;;;10411097;28;20165;-72
2023/10/14 11:27:30;;;;;;;16.80;2.90;;;;;;;;;;10412164;28;20036;-72
2023/10/14 11:32:30;;;;;;;6.25;2.20;;;;;;;;;;10421647;28;20036;-73
2023/10/14 11:37:36;;;;;;;13.88;3.03;;;;;;;;;;10411057;28;20074;-70
2023/10/14 11:42:37;;;;;;;6.10;2.28;;;;;;;;;;10409892;28;20023;-73
2023/10/14 11:47:40;;;;;;;10.07;3.25;;;;;;;;;;10419161;28;20032;-73
2023/10/14 11:52:44;;;;;;;8.05;4.32;;;;;;;;;;10424606;28;20029;-73
2023/10/14 11:57:46;;;;;;;8.73;2.55;;;;;;;;;;10424701;28;20315;-73
2023/10/14 12:02:47;;;;;;;7.90;2.72;;;;;;;;;;10425752;28;20045;-73
2023/10/14 12:07:47;;;;;;;5.88;2.55;;;;;;;;;;10424402;28;20295;-73
2023/10/14 12:12:52;;;;;;;8.95;2.92;;;;;;;;;;10424723;28;20219;-71
2023/10/14 12:17:52;;;;;;;8.02;2.60;;;;;;;;;;10423251;28;20025;-71
2023/10/14 12:22:52;;;;;;;8.68;3.60;;;;;;;;;;10422785;28;20029;-72
2023/10/14 12:27:53;;;;;;;12.75;3.50;;;;;;;;;;10423937;28;20036;-73
2023/10/14 12:32:53;;;;;;;17.10;4.13;;;;;;;;;;10424436;28;20107;-73
2023/10/14 12:37:55;;;;;;;11.40;3.70;;;;;;;;;;10423766;28;20092;-73
2023/10/14 12:43:01;;;;;;;8.70;2.70;;;;;;;;;;10423487;28;20017;-72
2023/10/14 12:48:11;;;;;;;8.20;3.30;;;;;;;;;;10430275;28;20063;-72
2023/10/14 12:53:12;;;;;;;11.35;3.08;;;;;;;;;;10423571;28;20172;-72
2023/10/14 12:58:15;;;;;;;8.85;3.65;;;;;;;;;;10420068;28;20029;-72
2023/10/14 13:03:17;;;;;;;8.70;3.10;;;;;;;;;;10417156;28;20009;-72
2023/10/14 13:08:19;;;;;;;8.13;3.10;;;;;;;;;;10417038;28;20276;-71
2023/10/14 13:13:20;;;;;;;10.13;3.13;;;;;;;;;;10416793;28;20020;-71
2023/10/14 13:18:24;;;;;;;11.68;3.08;;;;;;;;;;10414314;28;20084;-72
2023/10/14 13:23:25;;;;;;;12.18;3.35;;;;;;;;;;10416684;28;20338;-72
2023/10/14 13:28:25;;;;;;;11.27;4.22;;;;;;;;;;10416040;28;20356;-71
2023/10/14 13:33:25;;;;;;;9.48;3.20;;;;;;;;;;10416639;28;20061;-71
2023/10/14 13:38:26;;;;;;;12.18;3.55;;;;;;;;;;10416068;28;20080;-71
2023/10/14 13:43:26;;;;;;;7.17;4.03;;;;;;;;;;10415730;28;20357;-71
2023/10/14 13:48:26;;;;;;;9.60;3.10;;;;;;;;;;10414834;28;20067;-71
2023/10/14 13:53:32;;;;;;;8.90;3.42;;;;;;;;;;10415594;28;20009;-72
2023/10/14 13:58:34;;;;;;;8.32;3.00;;;;;;;;;;10421641;28;20239;-71
2023/10/14 14:03:38;;;;;;;12.30;3.95;;;;;;;;;;10414629;28;20311;-71
2023/10/14 14:08:38;;;;;;;3.90;2.72;;;;;;;;;;10411674;28;20021;-71
2023/10/14 14:13:42;;;;;;;9.03;2.50;;;;;;;;;;10413887;28;20025;-71
2023/10/14 14:18:43;;;;;;;10.38;3.33;;;;;;;;;;10413832;28;20029;-71
2023/10/14 14:23:43;;;;;;;14.43;4.03;;;;;;;;;;10412831;28;20021;-72
2023/10/14 14:28:44;;;;;;;12.05;3.60;;;;;;;;;;10412730;28;20337;-71
2023/10/14 14:33:45;;;;;;;5.80;3.28;;;;;;;;;;10414077;28;20017;-70
2023/10/14 14:38:46;;;;;;;14.40;6.93;;;;;;;;;;10413948;28;20049;-71
2023/10/14 14:43:46;;;;;;;13.17;3.57;;;;;;;;;;10412897;28;20022;-71
2023/10/14 14:48:48;;;;;;;8.45;3.35;;;;;;;;;;10412645;28;20274;-71
2023/10/14 14:53:49;;;;;;;13.70;4.10;;;;;;;;;;10413483;28;20029;-71
2023/10/14 14:58:49;;;;;;;10.77;3.55;;;;;;;;;;10411865;28;20235;-71
2023/10/14 15:03:51;;;;;;;11.60;5.03;;;;;;;;;;10412376;28;20207;-71
2023/10/14 15:08:51;;;;;;;10.68;4.72;;;;;;;;;;10412571;28;20080;-73
2023/10/14 15:13:52;;;;;;;9.43;4.55;;;;;;;;;;10412859;28;20036;-70
2023/10/14 15:18:54;;;;;;;14.52;5.85;;;;;;;;;;10412008;28;20025;-70
2023/10/14 15:23:54;;;;;;;18.38;5.45;;;;;;;;;;10410119;28;20052;-70
2023/10/14 15:28:55;;;;;;;22.67;5.90;;;;;;;;;;10412726;28;20017;-71
2023/10/14 15:33:55;;;;;;;11.10;4.40;;;;;;;;;;10412035;28;20319;-71
2023/10/14 15:38:55;;;;;;;14.43;4.90;;;;;;;;;;10411582;28;20045;-70
2023/10/14 15:43:55;;;;;;;12.07;4.78;;;;;;;;;;10411479;28;20048;-71
2023/10/14 15:49:02;;;;;;;15.53;6.93;;;;;;;;;;10411208;28;20085;-70
2023/10/14 15:54:06;;;;;;;14.27;5.28;;;;;;;;;;10409039;28;20017;-71
2023/10/14 15:59:06;;;;;;;10.27;4.78;;;;;;;;;;10411827;28;20391;-71
2023/10/14 16:04:08;;;;;;;18.27;4.60;;;;;;;;;;10411080;28;20079;-71
2023/10/14 16:09:09;;;;;;;15.25;3.90;;;;;;;;;;10410605;28;20037;-72
2023/10/14 16:14:09;;;;;;;15.10;3.90;;;;;;;;;;10411492;28;20243;-72
2023/10/14 16:19:09;;;;;;;15.15;4.07;;;;;;;;;;10409189;28;20087;-72
2023/10/14 16:24:11;;;;;;;14.67;3.83;;;;;;;;;;10410555;28;20022;-72
2023/10/14 16:29:12;;;;;;;12.63;5.00;;;;;;;;;;10409155;28;20287;-71
2023/10/14 16:34:14;;;;;;;8.02;4.03;;;;;;;;;;10415652;28;20111;-71
2023/10/14 16:39:15;;;;;;;13.68;6.13;;;;;;;;;;10418039;28;20034;-72
2023/10/14 16:44:15;;;;;;;8.63;4.13;;;;;;;;;;10418418;28;20026;-71
2023/10/14 16:49:15;;;;;;;13.13;4.88;;;;;;;;;;10417714;28;20018;-70
2023/10/14 16:54:17;;;;;;;14.63;5.80;;;;;;;;;;10418538;28;20223;-70
2023/10/14 16:59:17;;;;;;;12.18;4.10;;;;;;;;;;10418303;28;21421;-70
2023/10/14 17:04:18;;;;;;;9.23;4.05;;;;;;;;;;10417205;28;20040;-71
2023/10/14 17:09:19;;;;;;;7.45;3.92;;;;;;;;;;10417656;28;20021;-72
2023/10/14 17:14:20;;;;;;;9.77;3.70;;;;;;;;;;10418613;28;20041;-71
2023/10/14 17:19:21;;;;;;;12.30;4.20;;;;;;;;;;10416826;28;20307;-72
2023/10/14 17:24:21;;;;;;;11.23;3.83;;;;;;;;;;10416583;28;20295;-71
2023/10/14 17:29:22;;;;;;;12.20;3.28;;;;;;;;;;10417076;28;20071;-71
2023/10/14 17:34:23;;;;;;;11.40;4.20;;;;;;;;;;10416256;28;20017;-71
2023/10/14 17:39:23;;;;;;;23.50;3.67;;;;;;;;;;10415808;28;20245;-71
2023/10/14 17:44:24;;;;;;;11.07;3.47;;;;;;;;;;10416263;28;20045;-69
2023/10/14 17:49:24;;;;;;;10.87;3.70;;;;;;;;;;10414855;28;20025;-68
2023/10/14 17:54:24;;;;;;;7.45;3.90;;;;;;;;;;10415713;28;20616;-74
2023/10/14 17:59:24;;;;;;;8.32;4.05;;;;;;;;;;10413677;28;20021;-71
2023/10/14 18:04:25;;;;;;;8.55;3.60;;;;;;;;;;10412789;28;20018;-72
2023/10/14 18:09:26;;;;;;;12.80;6.07;;;;;;;;;;10411132;28;20024;-71
2023/10/14 18:14:28;;;;;;;9.77;4.75;;;;;;;;;;10408440;28;20414;-72
2023/10/14 18:19:28;;;;;;;13.00;4.70;;;;;;;;;;10415011;28;20310;-74
2023/10/14 18:24:32;;;;;;;9.68;4.22;;;;;;;;;;10412273;28;20021;-73
2023/10/14 18:29:34;;;;;;;10.07;3.80;;;;;;;;;;10413247;28;20021;-74
2023/10/14 18:34:34;;;;;;;20.88;7.03;;;;;;;;;;10419875;28;20084;-75
2023/10/14 18:39:34;;;;;;;7.72;3.92;;;;;;;;;;10413124;28;20049;-73
2023/10/14 18:44:34;;;;;;;10.85;4.05;;;;;;;;;;10415493;28;20029;-74
2023/10/14 18:49:35;;;;;;;14.52;4.18;;;;;;;;;;10414385;28;20025;-75
2023/10/14 18:54:35;;;;;;;9.07;3.97;;;;;;;;;;10410714;28;20254;-73
2023/10/14 18:59:39;;;;;;;12.75;4.15;;;;;;;;;;10412052;28;20305;-73
2023/10/14 19:04:40;;;;;;;15.52;4.38;;;;;;;;;;10413525;28;20084;-75
2023/10/14 19:09:40;;;;;;;9.35;4.78;;;;;;;;;;10412271;28;20320;-75
2023/10/14 19:14:41;;;;;;;10.93;4.37;;;;;;;;;;10412163;28;20041;-73
2023/10/14 19:19:41;;;;;;;7.60;3.20;;;;;;;;;;10411868;28;20009;-74
2023/10/14 19:24:41;;;;;;;10.93;3.50;;;;;;;;;;10411928;28;20138;-73
2023/10/14 19:29:43;;;;;;;8.05;3.38;;;;;;;;;;10410343;28;20017;-73
2023/10/14 19:34:44;;;;;;;12.68;4.53;;;;;;;;;;10443898;28;20096;-73
2023/10/14 19:39:44;;;;;;;5.93;3.55;;;;;;;;;;10411655;28;20485;-73
2023/10/14 19:44:45;;;;;;;11.38;3.53;;;;;;;;;;10411061;28;20025;-73
2023/10/14 19:49:45;;;;;;;18.17;3.67;;;;;;;;;;10411401;28;20041;-73
2023/10/14 19:54:45;;;;;;;8.33;3.67;;;;;;;;;;10408532;28;20045;-73
2023/10/14 19:59:46;;;;;;;11.60;3.47;;;;;;;;;;10409860;28;20211;-72
2023/10/14 20:04:46;;;;;;;10.15;3.90;;;;;;;;;;10411529;28;20331;-72
2023/10/14 20:09:46;;;;;;;12.02;3.35;;;;;;;;;;10417123;28;20309;-73
2023/10/14 20:14:48;;;;;;;7.60;3.15;;;;;;;;;;10418894;28;20033;-73
2023/10/14 20:19:48;;;;;;;15.27;3.58;;;;;;;;;;10418818;28;20357;-74
2023/10/14 20:24:51;;;;;;;11.25;4.03;;;;;;;;;;10418012;28;20017;-85
2023/10/14 20:30:27;;;;;;;9.40;2.97;;;;;;;;;;10422456;28;20030;-84
2023/10/14 20:35:31;;;;;;;12.82;4.40;;;;;;;;;;10442246;28;20029;-88
2023/10/14 20:40:32;;;;;;;10.73;4.32;;;;;;;;;;10421349;28;20136;-80
2023/10/14 20:45:34;;;;;;;6.32;3.80;;;;;;;;;;10418165;28;20038;-80
2023/10/14 20:50:35;;;;;;;8.70;5.03;;;;;;;;;;10420342;28;20320;-84
2023/10/14 20:55:38;;;;;;;7.80;3.63;;;;;;;;;;10418190;28;20081;-76
2023/10/14 21:00:39;;;;;;;7.75;3.70;;;;;;;;;;10415115;28;20211;-78
2023/10/14 21:05:40;;;;;;;8.77;4.20;;;;;;;;;;10417015;28;20021;-75
2023/10/14 21:10:41;;;;;;;20.05;5.57;;;;;;;;;;10417245;28;20294;-74
2023/10/14 21:15:41;;;;;;;15.02;6.22;;;;;;;;;;10415764;28;20349;-75
2023/10/14 21:20:43;;;;;;;15.32;4.60;;;;;;;;;;10415368;28;20025;-75
2023/10/14 21:25:44;;;;;;;11.00;5.25;;;;;;;;;;10414658;28;20025;-75
2023/10/14 21:30:44;;;;;;;12.32;5.15;;;;;;;;;;10415331;28;20025;-75
2023/10/14 21:35:47;;;;;;;8.77;5.70;;;;;;;;;;10414765;28;20025;-74
2023/10/14 21:40:48;;;;;;;12.45;5.53;;;;;;;;;;10415339;28;20254;-75
2023/10/14 21:45:48;;;;;;;15.50;5.73;;;;;;;;;;10413166;28;20025;-76
2023/10/14 21:50:48;;;;;;;11.97;5.97;;;;;;;;;;10415254;28;20059;-76
2023/10/14 21:55:48;;;;;;;17.83;6.68;;;;;;;;;;10415060;28;20055;-76
2023/10/14 22:00:49;;;;;;;17.25;6.88;;;;;;;;;;10414226;28;20339;-73
2023/10/14 22:05:53;;;;;;;14.60;6.75;;;;;;;;;;10414242;28;20021;-74
2023/10/14 22:10:53;;;;;;;14.95;8.02;;;;;;;;;;10412545;28;20017;-73
2023/10/14 22:15:53;;;;;;;15.40;7.60;;;;;;;;;;10413240;28;20029;-74
2023/10/14 22:20:54;;;;;;;14.52;7.80;;;;;;;;;;10413541;28;20029;-73
2023/10/14 22:25:56;;;;;;;18.08;8.30;;;;;;;;;;10414283;28;20235;-74
2023/10/14 22:30:59;;;;;;;18.77;8.55;;;;;;;;;;10410783;28;20017;-74
2023/10/14 22:36:00;;;;;;;18.83;7.35;;;;;;;;;;10419510;28;20315;-74
2023/10/14 22:41:01;;;;;;;22.30;8.10;;;;;;;;;;10412559;28;20203;-74
2023/10/14 22:46:01;;;;;;;18.67;7.22;;;;;;;;;;10412306;28;20251;-75
2023/10/14 22:51:01;;;;;;;17.13;6.72;;;;;;;;;;10414642;28;20021;-70
2023/10/14 22:56:05;;;;;;;14.10;7.28;;;;;;;;;;10415418;28;20025;-70
2023/10/14 23:01:06;;;;;;;20.67;7.50;;;;;;;;;;10416344;28;20067;-69
2023/10/14 23:06:06;;;;;;;17.17;7.87;;;;;;;;;;10418128;28;20036;-70
2023/10/14 23:11:06;;;;;;;14.87;7.33;;;;;;;;;;10416264;28;20021;-69
2023/10/14 23:16:07;;;;;;;13.17;6.73;;;;;;;;;;10413663;28;20029;-70
2023/10/14 23:21:09;;;;;;;13.48;6.82;;;;;;;;;;10413426;28;20049;-69
2023/10/14 23:26:10;;;;;;;18.38;7.28;;;;;;;;;;10424384;28;20062;-69
2023/10/14 23:31:10;;;;;;;11.68;6.80;;;;;;;;;;10416987;28;20021;-70
2023/10/14 23:36:11;;;;;;;17.85;6.72;;;;;;;;;;10417036;28;20029;-69
2023/10/14 23:41:12;;;;;;;19.13;7.32;;;;;;;;;;10416477;28;20052;-70
2023/10/14 23:46:12;;;;;;;14.23;6.32;;;;;;;;;;10417187;28;20037;-71
2023/10/14 23:51:12;;;;;;;20.48;7.72;;;;;;;;;;10416055;28;20031;-71
2023/10/14 23:56:13;;;;;;;12.83;7.00;;;;;;;;;;10416008;28;20195;-70
